createdAt,value
2018-05-21T00:01:37.298Z,17.00
2018-05-21T00:04:04.767Z,17.10
2018-05-21T00:06:32.253Z,17.00
2018-05-21T00:08:59.795Z,17.10
2018-05-21T00:11:27.368Z,17.10
2018-05-21T00:13:54.946Z,17.10
2018-05-21T00:16:23.218Z,17.00
2018-05-21T00:18:51.462Z,17.00
2018-05-21T00:21:19.017Z,17.00
2018-05-21T00:23:46.495Z,17.00
2018-05-21T00:26:13.955Z,17.00
2018-05-21T00:28:41.509Z,17.00
2018-05-21T00:31:08.987Z,17.10
2018-05-21T00:33:37.252Z,16.90
2018-05-21T00:36:05.485Z,16.90
2018-05-21T00:38:32.991Z,16.90
2018-05-21T00:41:01.208Z,16.90
2018-05-21T00:43:28.666Z,16.90
2018-05-21T00:45:56.166Z,16.90
2018-05-21T00:48:24.492Z,16.90
2018-05-21T00:50:52.900Z,16.90
2018-05-21T00:53:20.355Z,16.90
2018-05-21T00:55:47.956Z,16.80
2018-05-21T00:58:16.220Z,16.70
2018-05-21T01:00:43.725Z,16.70
2018-05-21T01:03:11.178Z,16.80
2018-05-21T01:05:38.681Z,16.80
2018-05-21T01:08:06.160Z,16.80
2018-05-21T01:10:34.408Z,16.80
2018-05-21T01:13:01.874Z,16.80
2018-05-21T01:15:29.494Z,16.70
2018-05-21T01:17:56.975Z,16.60
2018-05-21T01:20:24.466Z,16.60
2018-05-21T01:22:51.966Z,16.60
2018-05-21T01:25:19.447Z,16.60
2018-05-21T01:27:46.904Z,16.60
2018-05-21T01:30:14.397Z,16.60
2018-05-21T01:32:42.635Z,16.50
2018-05-21T01:35:10.140Z,16.50
2018-05-21T01:37:38.470Z,16.50
2018-05-21T01:40:05.959Z,16.50
2018-05-21T01:42:34.217Z,16.40
2018-05-21T01:45:01.703Z,16.40
2018-05-21T01:47:29.192Z,16.30
2018-05-21T01:49:56.653Z,16.30
2018-05-21T01:52:24.150Z,16.30
2018-05-21T01:54:51.798Z,16.30
2018-05-21T01:57:19.376Z,16.40
2018-05-21T01:59:46.848Z,16.40
2018-05-21T02:02:15.100Z,16.40
2018-05-21T02:04:42.653Z,16.40
2018-05-21T02:07:10.206Z,16.40
2018-05-21T02:09:37.722Z,16.40
2018-05-21T02:12:05.290Z,16.30
2018-05-21T02:14:32.769Z,16.30
2018-05-21T02:17:00.225Z,16.30
2018-05-21T02:19:27.868Z,16.30
2018-05-21T02:21:55.380Z,16.40
2018-05-21T02:24:22.832Z,16.40
2018-05-21T02:26:50.297Z,16.40
2018-05-21T02:29:17.779Z,16.40
2018-05-21T02:31:45.263Z,16.30
2018-05-21T02:34:12.719Z,16.40
2018-05-21T02:36:40.168Z,16.30
2018-05-21T02:39:07.650Z,16.30
2018-05-21T02:41:35.152Z,16.30
2018-05-21T02:44:03.439Z,16.20
2018-05-21T02:46:30.929Z,16.30
2018-05-21T02:48:58.423Z,16.30
2018-05-21T02:51:25.990Z,16.30
2018-05-21T02:53:53.528Z,16.20
2018-05-21T02:56:21.093Z,16.30
2018-05-21T02:58:48.660Z,16.30
2018-05-21T03:01:16.268Z,16.30
2018-05-21T03:03:43.735Z,16.20
2018-05-21T03:06:11.238Z,16.10
2018-05-21T03:08:39.458Z,16.20
2018-05-21T03:11:06.938Z,16.20
2018-05-21T03:13:34.403Z,16.20
2018-05-21T03:16:01.856Z,16.10
2018-05-21T03:18:29.322Z,16.10
2018-05-21T03:20:56.776Z,16.20
2018-05-21T03:23:24.242Z,16.30
2018-05-21T03:25:51.808Z,16.30
2018-05-21T03:28:19.418Z,16.30
2018-05-21T03:30:46.973Z,16.30
2018-05-21T03:33:14.485Z,16.10
2018-05-21T03:35:42.049Z,16.20
2018-05-21T03:38:09.542Z,16.20
2018-05-21T03:40:37.019Z,16.20
2018-05-21T03:43:04.506Z,16.20
2018-05-21T03:45:31.955Z,16.30
2018-05-21T03:47:59.454Z,16.40
2018-05-21T03:50:27.021Z,16.30
2018-05-21T03:52:54.516Z,16.40
2018-05-21T03:55:21.960Z,16.30
2018-05-21T03:57:49.424Z,16.40
2018-05-21T04:00:28.855Z,16.50
2018-05-21T04:03:08.077Z,16.40
2018-05-21T04:05:35.578Z,16.40
2018-05-21T04:08:03.044Z,16.30
2018-05-21T04:10:30.622Z,16.30
2018-05-21T04:12:58.911Z,16.40
2018-05-21T04:15:26.376Z,16.40
2018-05-21T04:17:53.824Z,16.40
2018-05-21T04:20:21.303Z,16.40
2018-05-21T04:22:48.822Z,16.50
2018-05-21T04:25:16.353Z,16.50
2018-05-21T04:27:43.920Z,16.50
2018-05-21T04:30:11.467Z,16.60
2018-05-21T04:32:38.951Z,16.60
2018-05-21T04:35:06.555Z,16.60
2018-05-21T04:37:34.074Z,16.60
2018-05-21T04:40:01.525Z,16.60
2018-05-21T04:42:28.998Z,16.70
2018-05-21T04:44:57.204Z,16.70
2018-05-21T04:47:24.651Z,16.70
2018-05-21T04:49:52.674Z,16.70
2018-05-21T04:52:20.219Z,16.70
2018-05-21T04:54:47.659Z,16.90
2018-05-21T04:57:15.146Z,16.90
2018-05-21T04:59:42.709Z,17.00
2018-05-21T05:02:10.247Z,17.10
2018-05-21T05:04:38.205Z,17.00
2018-05-21T05:07:05.733Z,17.00
2018-05-21T05:09:33.304Z,17.00
2018-05-21T05:12:00.763Z,17.00
2018-05-21T05:14:28.244Z,16.90
2018-05-21T05:16:55.778Z,16.90
2018-05-21T05:19:23.276Z,16.90
2018-05-21T05:21:50.750Z,16.90
2018-05-21T05:24:18.203Z,17.00
2018-05-21T05:26:45.760Z,17.00
2018-05-21T05:29:13.204Z,17.20
2018-05-21T05:31:40.686Z,17.00
2018-05-21T05:34:08.925Z,16.80
2018-05-21T05:36:36.439Z,16.80
2018-05-21T05:39:03.921Z,16.80
2018-05-21T05:41:31.398Z,16.80
2018-05-21T05:43:58.849Z,16.80
2018-05-21T05:46:26.306Z,16.80
2018-05-21T05:48:53.817Z,17.00
2018-05-21T05:51:21.340Z,17.20
2018-05-21T05:53:48.901Z,17.40
2018-05-21T05:56:17.063Z,17.90
2018-05-21T05:58:44.534Z,17.90
2018-05-21T06:01:12.001Z,18.20
2018-05-21T06:03:39.526Z,18.50
2018-05-21T06:06:07.014Z,18.80
2018-05-21T06:08:34.565Z,19.00
2018-05-21T06:11:01.996Z,19.00
2018-05-21T06:13:29.463Z,19.00
2018-05-21T06:15:56.923Z,19.10
2018-05-21T06:18:24.656Z,19.20
2018-05-21T06:20:52.117Z,19.10
2018-05-21T06:23:19.572Z,19.10
2018-05-21T06:25:47.085Z,19.10
2018-05-21T06:28:15.030Z,19.20
2018-05-21T06:30:42.510Z,19.30
2018-05-21T06:33:09.988Z,19.40
2018-05-21T06:35:38.345Z,19.50
2018-05-21T06:38:05.842Z,19.50
2018-05-21T06:40:33.287Z,19.70
2018-05-21T06:43:00.739Z,19.90
2018-05-21T06:45:28.195Z,20.30
2018-05-21T06:47:55.676Z,20.70
2018-05-21T06:50:23.127Z,21.30
2018-05-21T06:52:51.136Z,21.40
2018-05-21T06:55:18.621Z,21.60
2018-05-21T06:57:46.858Z,21.90
2018-05-21T07:00:14.300Z,21.90
2018-05-21T07:02:41.781Z,22.40
2018-05-21T07:05:09.299Z,23.00
2018-05-21T07:07:36.722Z,23.60
2018-05-21T07:10:04.971Z,23.80
2018-05-21T07:12:32.426Z,23.80
2018-05-21T07:14:59.999Z,23.70
2018-05-21T07:17:27.568Z,23.80
2018-05-21T07:19:55.881Z,24.50
2018-05-21T07:22:23.319Z,24.40
2018-05-21T07:24:51.412Z,25.00
2018-05-21T07:27:18.879Z,24.70
2018-05-21T07:29:46.380Z,24.70
2018-05-21T07:32:13.852Z,24.80
2018-05-21T07:34:42.059Z,25.30
2018-05-21T07:37:09.526Z,25.20
2018-05-21T07:39:36.970Z,25.30
2018-05-21T07:42:04.461Z,25.20
2018-05-21T07:44:31.932Z,25.30
2018-05-21T07:46:59.500Z,25.50
2018-05-21T07:49:27.091Z,25.90
2018-05-21T07:51:54.556Z,26.40
2018-05-21T07:54:22.065Z,26.90
2018-05-21T07:56:49.524Z,26.50
2018-05-21T07:59:16.977Z,26.60
2018-05-21T08:01:44.535Z,26.60
2018-05-21T08:04:12.005Z,27.10
2018-05-21T08:06:39.515Z,27.30
2018-05-21T08:09:07.034Z,27.10
2018-05-21T08:11:35.255Z,27.70
2018-05-21T08:14:02.735Z,27.70
2018-05-21T08:16:30.318Z,27.40
2018-05-21T08:18:57.802Z,27.30
2018-05-21T08:21:25.247Z,27.90
2018-05-21T08:23:53.581Z,28.00
2018-05-21T08:26:21.073Z,28.00
2018-05-21T08:28:49.343Z,28.80
2018-05-21T08:31:16.801Z,28.80
2018-05-21T08:33:45.082Z,25.90
2018-05-21T08:36:13.312Z,25.20
2018-05-21T08:38:40.765Z,25.20
2018-05-21T08:41:08.216Z,24.90
2018-05-21T08:43:35.714Z,24.70
2018-05-21T08:46:03.204Z,24.90
2018-05-21T08:48:30.689Z,26.20
2018-05-21T08:50:58.173Z,27.80
2018-05-21T08:53:27.261Z,28.10
2018-05-21T08:55:54.742Z,28.10
2018-05-21T08:58:22.992Z,29.50
2018-05-21T09:00:50.445Z,29.40
2018-05-21T09:03:17.925Z,30.50
2018-05-21T09:05:45.513Z,31.10
2018-05-21T09:08:13.096Z,30.80
2018-05-21T09:10:40.603Z,31.00
2018-05-21T09:13:09.612Z,32.30
2018-05-21T09:15:37.165Z,32.30
2018-05-21T09:18:05.378Z,31.30
2018-05-21T09:20:32.834Z,31.30
2018-05-21T09:23:00.394Z,31.80
2018-05-21T09:25:27.866Z,31.80
2018-05-21T09:27:55.308Z,31.70
2018-05-21T09:30:22.781Z,32.20
2018-05-21T09:32:50.313Z,32.30
2018-05-21T09:35:17.680Z,31.90
2018-05-21T09:37:45.131Z,31.90
2018-05-21T09:40:12.633Z,33.00
2018-05-21T09:42:40.124Z,33.70
2018-05-21T09:45:08.352Z,34.20
2018-05-21T09:47:35.807Z,34.10
2018-05-21T09:50:03.302Z,33.70
2018-05-21T09:52:31.535Z,33.90
2018-05-21T09:54:58.989Z,33.90
2018-05-21T09:57:26.461Z,33.70
2018-05-21T09:59:53.914Z,34.00
2018-05-21T10:02:21.447Z,34.20
2018-05-21T10:04:48.924Z,34.60
2018-05-21T10:07:16.395Z,34.50
2018-05-21T10:09:43.972Z,34.30
2018-05-21T10:12:11.548Z,34.70
2018-05-21T10:14:38.965Z,34.10
2018-05-21T10:17:06.424Z,33.20
2018-05-21T10:19:33.962Z,32.70
2018-05-21T10:22:02.189Z,32.50
2018-05-21T10:24:30.438Z,30.90
2018-05-21T10:26:57.922Z,30.80
2018-05-21T10:29:26.165Z,32.30
2018-05-21T10:31:53.670Z,32.20
2018-05-21T10:34:21.119Z,32.30
2018-05-21T10:36:49.387Z,32.70
2018-05-21T10:39:17.645Z,33.10
2018-05-21T10:41:45.132Z,33.10
2018-05-21T10:44:13.380Z,35.00
2018-05-21T10:46:40.832Z,35.00
2018-05-21T10:49:08.289Z,34.60
2018-05-21T10:51:35.755Z,34.70
2018-05-21T10:54:04.026Z,34.40
2018-05-21T10:56:31.471Z,34.40
2018-05-21T10:58:59.089Z,35.20
2018-05-21T11:01:26.613Z,35.60
2018-05-21T11:03:54.857Z,35.30
2018-05-21T11:06:22.381Z,35.30
2018-05-21T11:08:49.874Z,34.50
2018-05-21T11:11:17.368Z,34.90
2018-05-21T11:13:45.619Z,34.80
2018-05-21T11:16:13.186Z,34.80
2018-05-21T11:18:40.663Z,35.10
2018-05-21T11:21:08.970Z,34.00
2018-05-21T11:23:36.443Z,34.00
2018-05-21T11:26:03.889Z,34.60
2018-05-21T11:28:31.361Z,34.60
2018-05-21T11:30:58.804Z,35.00
2018-05-21T11:33:26.288Z,35.30
2018-05-21T11:35:53.881Z,34.60
2018-05-21T11:38:22.140Z,35.20
2018-05-21T11:40:50.106Z,35.10
2018-05-21T11:43:17.678Z,35.70
2018-05-21T11:45:45.886Z,34.80
2018-05-21T11:48:13.352Z,34.90
2018-05-21T11:50:40.983Z,32.70
2018-05-21T11:53:08.360Z,32.90
2018-05-21T11:55:35.813Z,33.30
2018-05-21T11:58:03.300Z,34.50
2018-05-21T12:00:30.848Z,34.60
2018-05-21T12:02:58.334Z,34.10
2018-05-21T12:05:25.888Z,34.20
2018-05-21T12:07:53.396Z,34.50
2018-05-21T12:10:20.893Z,34.70
2018-05-21T12:12:48.456Z,34.80
2018-05-21T12:15:16.039Z,34.50
2018-05-21T12:17:43.487Z,34.90
2018-05-21T12:20:11.278Z,34.60
2018-05-21T12:22:39.517Z,34.80
2018-05-21T12:25:06.977Z,34.70
2018-05-21T12:27:34.432Z,33.80
2018-05-21T12:30:01.998Z,33.90
2018-05-21T12:32:29.463Z,34.60
2018-05-21T12:34:57.037Z,34.70
2018-05-21T12:37:25.300Z,35.10
2018-05-21T12:39:52.866Z,35.10
2018-05-21T12:42:20.421Z,34.90
2018-05-21T12:44:48.135Z,34.10
2018-05-21T12:47:15.612Z,33.80
2018-05-21T12:49:43.094Z,32.90
2018-05-21T12:52:10.569Z,33.00
2018-05-21T12:54:38.799Z,31.70
2018-05-21T12:57:06.323Z,31.70
2018-05-21T12:59:33.865Z,31.30
2018-05-21T13:02:02.092Z,30.80
2018-05-21T13:04:29.564Z,30.80
2018-05-21T13:06:57.018Z,30.40
2018-05-21T13:09:24.491Z,29.80
2018-05-21T13:11:51.972Z,29.30
2018-05-21T13:14:19.426Z,29.30
2018-05-21T13:16:47.691Z,28.90
2018-05-21T13:19:15.929Z,28.90
2018-05-21T13:21:43.416Z,28.80
2018-05-21T13:24:11.013Z,28.90
2018-05-21T13:26:39.217Z,29.40
2018-05-21T13:29:06.701Z,29.40
2018-05-21T13:31:34.269Z,29.60
2018-05-21T13:34:01.736Z,29.70
2018-05-21T13:36:29.969Z,29.50
2018-05-21T13:38:57.472Z,29.50
2018-05-21T13:41:25.740Z,29.50
2018-05-21T13:43:53.962Z,29.50
2018-05-21T13:46:21.421Z,29.50
2018-05-21T13:48:48.905Z,29.40
2018-05-21T13:51:16.355Z,28.90
2018-05-21T13:53:43.915Z,28.80
2018-05-21T13:56:11.366Z,28.70
2018-05-21T13:58:38.925Z,28.80
2018-05-21T14:01:06.384Z,28.70
2018-05-21T14:03:33.964Z,28.80
2018-05-21T14:06:01.470Z,29.00
2018-05-21T14:08:28.912Z,29.00
2018-05-21T14:10:56.406Z,28.70
2018-05-21T14:13:23.895Z,28.70
2018-05-21T14:15:51.454Z,28.90
2018-05-21T14:18:18.900Z,28.70
2018-05-21T14:20:46.479Z,28.60
2018-05-21T14:23:13.953Z,28.70
2018-05-21T14:25:42.199Z,29.00
2018-05-21T14:28:09.689Z,29.00
2018-05-21T14:30:37.143Z,28.80
2018-05-21T14:33:05.383Z,29.20
2018-05-21T14:35:32.838Z,29.20
2018-05-21T14:38:00.438Z,29.70
2018-05-21T14:40:27.903Z,30.00
2018-05-21T14:42:55.338Z,30.00
2018-05-21T14:45:23.603Z,29.10
2018-05-21T14:47:51.868Z,29.00
2018-05-21T14:50:19.344Z,29.00
2018-05-21T14:52:47.571Z,29.00
2018-05-21T14:55:15.044Z,28.90
2018-05-21T14:57:42.569Z,28.90
2018-05-21T15:00:10.051Z,28.80
2018-05-21T15:02:37.616Z,28.70
2018-05-21T15:05:05.205Z,28.70
2018-05-21T15:07:33.448Z,28.60
2018-05-21T15:10:00.922Z,28.50
2018-05-21T15:12:28.498Z,28.60
2018-05-21T15:14:56.760Z,28.50
2018-05-21T15:17:24.331Z,28.40
2018-05-21T15:19:52.598Z,28.20
2018-05-21T15:22:20.090Z,28.20
2018-05-21T15:24:47.498Z,28.20
2018-05-21T15:27:15.052Z,28.20
2018-05-21T15:29:43.392Z,28.20
2018-05-21T15:32:10.917Z,28.20
2018-05-21T15:37:29.871Z,28.40
2018-05-21T15:39:57.417Z,28.30
2018-05-21T15:42:24.920Z,28.10
2018-05-21T15:44:53.284Z,28.10
2018-05-21T15:47:21.392Z,28.00
2018-05-21T15:49:48.874Z,28.00
2018-05-21T15:52:16.364Z,28.20
2018-05-21T15:54:43.830Z,28.20
2018-05-21T15:57:12.216Z,28.00
2018-05-21T15:59:40.477Z,28.00
2018-05-21T16:02:08.012Z,28.00
2018-05-21T16:04:35.494Z,27.90
2018-05-21T16:07:02.938Z,27.70
2018-05-21T16:09:30.488Z,27.80
2018-05-21T16:11:57.955Z,27.80
2018-05-21T16:14:25.521Z,27.90
2018-05-21T16:16:53.013Z,28.10
2018-05-21T16:19:20.486Z,28.10
2018-05-21T16:21:47.925Z,28.20
2018-05-21T16:24:15.396Z,28.00
2018-05-21T16:26:42.865Z,27.80
2018-05-21T16:29:10.316Z,27.80
2018-05-21T16:31:37.780Z,27.90
2018-05-21T16:34:05.240Z,27.80
2018-05-21T16:36:32.724Z,27.90
2018-05-21T16:39:00.396Z,28.00
2018-05-21T16:41:28.001Z,27.80
2018-05-21T16:43:55.391Z,27.90
2018-05-21T16:46:22.887Z,27.80
2018-05-21T16:48:51.090Z,27.60
2018-05-21T16:51:18.598Z,27.50
2018-05-21T16:53:46.093Z,27.40
2018-05-21T16:56:13.561Z,27.20
2018-05-21T16:58:41.025Z,27.20
2018-05-21T17:01:08.512Z,27.10
2018-05-21T17:03:36.038Z,27.10
2018-05-21T17:06:03.552Z,27.10
2018-05-21T17:08:31.784Z,27.10
2018-05-21T17:10:59.285Z,27.00
2018-05-21T17:13:26.994Z,27.00
2018-05-21T17:15:54.455Z,27.00
2018-05-21T17:18:21.921Z,26.90
2018-05-21T17:20:49.415Z,26.80
2018-05-21T17:23:16.874Z,26.80
2018-05-21T17:25:44.379Z,26.70
2018-05-21T17:28:11.881Z,26.70
2018-05-21T17:30:39.334Z,26.70
2018-05-21T17:33:06.876Z,26.60
2018-05-21T17:35:34.400Z,26.50
2018-05-21T17:38:02.022Z,26.50
2018-05-21T17:40:29.491Z,26.50
2018-05-21T17:42:57.766Z,26.40
2018-05-21T17:45:26.034Z,26.40
2018-05-21T17:47:53.503Z,26.30
2018-05-21T17:50:21.729Z,26.40
2018-05-21T17:52:49.199Z,26.40
2018-05-21T17:55:16.738Z,26.50
2018-05-21T17:57:44.269Z,26.30
2018-05-21T18:00:11.741Z,26.40
2018-05-21T18:02:39.192Z,26.40
2018-05-21T18:05:06.635Z,26.50
2018-05-21T18:07:34.109Z,26.60
2018-05-21T18:10:01.672Z,26.70
2018-05-21T18:12:29.127Z,26.60
2018-05-21T18:14:56.627Z,26.60
2018-05-21T18:17:24.121Z,26.50
2018-05-21T18:19:52.344Z,26.30
2018-05-21T18:22:20.858Z,26.30
2018-05-21T18:24:49.112Z,26.30
2018-05-21T18:27:16.736Z,26.30
2018-05-21T18:29:44.228Z,26.30
2018-05-21T18:32:11.813Z,26.10
2018-05-21T18:34:39.341Z,25.90
2018-05-21T18:37:07.028Z,26.00
2018-05-21T18:39:34.489Z,26.00
2018-05-21T18:42:02.030Z,25.90
2018-05-21T18:44:29.546Z,25.90
2018-05-21T18:46:57.007Z,25.80
2018-05-21T18:49:24.491Z,25.70
2018-05-21T18:51:51.959Z,25.70
2018-05-21T18:54:19.454Z,25.60
2018-05-21T18:56:47.689Z,25.60
2018-05-21T18:59:15.239Z,25.60
2018-05-21T19:01:42.736Z,25.60
2018-05-21T19:04:10.963Z,25.50
2018-05-21T19:06:38.413Z,25.50
2018-05-21T19:09:06.265Z,25.50
2018-05-21T19:11:33.741Z,25.60
2018-05-21T19:14:01.186Z,25.50
2018-05-21T19:16:28.654Z,25.40
2018-05-21T19:18:56.151Z,25.30
2018-05-21T19:21:23.612Z,25.30
2018-05-21T19:23:51.865Z,25.10
2018-05-21T19:26:20.201Z,25.00
2018-05-21T19:28:47.668Z,24.90
2018-05-21T19:31:15.144Z,25.00
2018-05-21T19:33:42.625Z,24.90
2018-05-21T19:36:10.910Z,24.80
2018-05-21T19:38:38.471Z,24.70
2018-05-21T19:41:06.703Z,24.50
2018-05-21T19:43:34.240Z,24.50
2018-05-21T19:46:01.708Z,24.30
2018-05-21T19:48:29.169Z,24.30
2018-05-21T19:50:56.690Z,24.20
2018-05-21T19:53:24.946Z,24.20
2018-05-21T19:55:52.464Z,24.20
2018-05-21T19:58:19.963Z,24.10
2018-05-21T20:00:47.408Z,24.00
2018-05-21T20:03:14.900Z,24.00
2018-05-21T20:05:42.375Z,23.80
2018-05-21T20:08:09.835Z,23.70
2018-05-21T20:10:37.311Z,23.70
2018-05-21T20:13:04.756Z,23.60
2018-05-21T20:15:32.244Z,23.60
2018-05-21T20:17:59.691Z,23.60
2018-05-21T20:20:46.421Z,23.70
2018-05-21T20:23:14.004Z,23.70
2018-05-21T20:25:42.273Z,23.70
2018-05-21T20:28:10.580Z,23.70
2018-05-21T20:30:38.028Z,23.70
2018-05-21T20:33:05.495Z,23.80
2018-05-21T20:35:32.973Z,23.80
2018-05-21T20:38:00.509Z,23.70
2018-05-21T20:40:27.962Z,23.50
2018-05-21T20:42:55.451Z,23.50
2018-05-21T20:45:22.994Z,23.50
2018-05-21T20:47:50.408Z,23.40
2018-05-21T20:50:18.688Z,23.30
2018-05-21T20:52:46.991Z,23.30
2018-05-21T20:55:14.470Z,23.20
2018-05-21T20:57:41.947Z,23.20
2018-05-21T21:00:09.441Z,23.20
2018-05-21T21:02:36.892Z,23.10
2018-05-21T21:05:05.123Z,22.90
2018-05-21T21:07:32.716Z,22.90
2018-05-21T21:10:00.185Z,22.90
2018-05-21T21:12:28.412Z,22.80
2018-05-21T21:14:55.982Z,22.80
2018-05-21T21:17:23.483Z,22.70
2018-05-21T21:19:51.736Z,22.60
2018-05-21T21:22:19.225Z,22.60
2018-05-21T21:24:46.732Z,22.50
2018-05-21T21:27:14.192Z,22.50
2018-05-21T21:29:41.751Z,22.40
2018-05-21T21:32:09.208Z,22.30
2018-05-21T21:34:36.681Z,22.30
2018-05-21T21:37:04.211Z,22.30
2018-05-21T21:39:31.777Z,22.30
2018-05-21T21:41:59.917Z,22.20
2018-05-21T21:44:28.239Z,22.10
2018-05-21T21:46:55.787Z,22.10
2018-05-21T21:49:23.254Z,22.10
2018-05-21T21:51:50.732Z,22.00
2018-05-21T21:54:18.970Z,22.00
2018-05-21T21:56:46.463Z,22.00
2018-05-21T21:59:14.680Z,21.80
2018-05-21T22:01:42.181Z,21.80
2018-05-21T22:04:09.723Z,21.80
2018-05-21T22:06:37.175Z,21.80
2018-05-21T22:09:05.564Z,21.70
2018-05-21T22:11:33.135Z,21.70
2018-05-21T22:14:00.646Z,21.70
2018-05-21T22:16:28.086Z,21.60
2018-05-21T22:18:55.616Z,21.60
2018-05-21T22:21:23.052Z,21.50
2018-05-21T22:23:51.389Z,21.30
2018-05-21T22:26:18.890Z,21.30
2018-05-21T22:28:46.356Z,21.30
2018-05-21T22:31:13.889Z,21.20
2018-05-21T22:33:41.375Z,21.10
2018-05-21T22:36:08.928Z,21.00
2018-05-21T22:38:36.409Z,20.90
2018-05-21T22:41:04.649Z,20.80
2018-05-21T22:43:32.137Z,20.80
2018-05-21T22:46:00.383Z,20.80
2018-05-21T22:48:27.844Z,20.70
2018-05-21T22:50:55.298Z,20.80
2018-05-21T22:53:22.774Z,20.90
2018-05-21T22:55:50.320Z,20.80
2018-05-21T22:58:17.908Z,20.80
2018-05-21T23:00:46.151Z,20.90
2018-05-21T23:03:13.696Z,20.80
2018-05-21T23:05:41.154Z,20.80
2018-05-21T23:08:08.728Z,20.90
2018-05-21T23:10:36.283Z,20.90
2018-05-21T23:13:03.744Z,20.90
2018-05-21T23:15:31.223Z,20.90
2018-05-21T23:17:59.494Z,20.80
2018-05-21T23:20:26.963Z,20.70
2018-05-21T23:22:55.180Z,20.60
2018-05-21T23:25:22.651Z,20.60
2018-05-21T23:27:50.119Z,20.50
2018-05-21T23:30:17.589Z,20.50
2018-05-21T23:32:45.059Z,20.40
2018-05-21T23:35:13.319Z,20.40
2018-05-21T23:37:40.770Z,20.40
2018-05-21T23:40:08.247Z,20.40
2018-05-21T23:42:36.492Z,20.40
2018-05-21T23:45:03.956Z,20.40
2018-05-21T23:47:31.427Z,20.30
2018-05-21T23:49:58.955Z,20.40
2018-05-21T23:52:26.477Z,20.40
2018-05-21T23:54:53.989Z,20.40
2018-05-21T23:57:21.436Z,20.40
2018-05-21T23:59:48.908Z,20.40
